createdAt,value
2022-08-11T00:01:19.987Z,102208.94
2022-08-11T00:03:58.721Z,102212.47
2022-08-11T00:06:28.990Z,102212.56
2022-08-11T00:08:57.040Z,102205.72
2022-08-11T00:11:33.923Z,102203.34
2022-08-11T00:14:02.075Z,102208.00
2022-08-11T00:16:29.684Z,102208.72
2022-08-11T00:18:57.639Z,102208.59
2022-08-11T00:22:01.989Z,102206.44
2022-08-11T00:24:13.124Z,102197.19
2022-08-11T00:26:39.661Z,102208.06
2022-08-11T00:29:10.811Z,102204.09
2022-08-11T00:31:38.955Z,102197.03
2022-08-11T00:34:11.449Z,102196.81
2022-08-11T00:36:59.909Z,102206.06
2022-08-11T00:39:29.245Z,102200.94
2022-08-11T00:42:23.827Z,102211.44
2022-08-11T00:45:35.076Z,102208.63
2022-08-11T00:48:40.152Z,102193.88
2022-08-11T00:51:20.486Z,102205.97
2022-08-11T00:54:02.529Z,102198.19
2022-08-11T00:56:47.748Z,102195.69
2022-08-11T00:59:35.064Z,102195.69
2022-08-11T01:02:18.275Z,102208.34
2022-08-11T01:04:57.268Z,102203.88
2022-08-11T01:08:02.875Z,102205.84
2022-08-11T01:11:16.995Z,102203.94
2022-08-11T01:14:05.427Z,102197.69
2022-08-11T01:17:25.070Z,102197.69
2022-08-11T01:20:45.825Z,102201.69
2022-08-11T01:23:07.521Z,102196.78
2022-08-11T01:25:56.421Z,102199.34
2022-08-11T01:29:13.503Z,102209.16
2022-08-11T01:32:21.559Z,102207.25
2022-08-11T01:35:29.322Z,102201.63
2022-08-11T01:38:27.790Z,102204.84
2022-08-11T01:41:24.429Z,102207.72
2022-08-11T01:44:39.119Z,102199.56
2022-08-11T01:47:53.076Z,102198.59
2022-08-11T01:50:57.387Z,102196.41
2022-08-11T01:53:35.573Z,102199.53
2022-08-11T01:56:24.720Z,102202.28
2022-08-11T01:59:10.598Z,102194.56
2022-08-11T02:01:58.868Z,102210.00
2022-08-11T02:04:34.528Z,102194.25
2022-08-11T02:07:04.489Z,102202.84
2022-08-11T02:09:54.416Z,102197.03
2022-08-11T02:13:00.428Z,102198.16
2022-08-11T02:15:36.340Z,102203.66
2022-08-11T02:18:13.758Z,102206.53
2022-08-11T02:21:21.118Z,102202.81
2022-08-11T02:24:09.191Z,102207.59
2022-08-11T02:26:47.047Z,102205.69
2022-08-11T02:29:33.756Z,102203.06
2022-08-11T02:32:38.235Z,102210.56
2022-08-11T02:35:52.970Z,102203.31
2022-08-11T02:38:31.776Z,102197.03
2022-08-11T02:41:40.285Z,102192.91
2022-08-11T02:44:20.785Z,102195.78
2022-08-11T02:47:02.843Z,102192.66
2022-08-11T02:50:05.907Z,102192.41
2022-08-11T02:53:02.190Z,102194.72
2022-08-11T02:55:58.278Z,102195.59
2022-08-11T02:59:06.217Z,102198.13
2022-08-11T03:01:45.543Z,102195.38
2022-08-11T03:04:37.662Z,102190.13
2022-08-11T03:07:29.048Z,102198.53
2022-08-11T03:10:02.778Z,102202.88
2022-08-11T03:12:55.101Z,102204.00
2022-08-11T03:15:50.040Z,102205.13
2022-08-11T03:18:41.231Z,102199.56
2022-08-11T03:21:17.592Z,102204.66
2022-08-11T03:24:13.619Z,102194.91
2022-08-11T03:26:54.816Z,102196.88
2022-08-11T03:29:34.203Z,102190.75
2022-08-11T03:32:19.336Z,102191.94
2022-08-11T03:34:48.653Z,102198.59
2022-08-11T03:37:39.789Z,102206.44
2022-08-11T03:40:51.932Z,102199.69
2022-08-11T03:43:32.602Z,102194.78
2022-08-11T03:46:12.168Z,102197.59
2022-08-11T03:48:57.174Z,102192.88
2022-08-11T03:51:44.798Z,102186.00
2022-08-11T03:54:35.721Z,102192.34
2022-08-11T03:57:14.172Z,102192.34
2022-08-11T04:00:18.225Z,102203.22
2022-08-11T04:03:07.888Z,102193.81
2022-08-11T04:06:15.525Z,102192.16
2022-08-11T04:09:23.730Z,102182.97
2022-08-11T04:12:36.797Z,102185.50
2022-08-11T04:15:59.684Z,102191.31
2022-08-11T04:18:55.037Z,102189.13
2022-08-11T04:21:59.297Z,102186.66
2022-08-11T04:24:50.538Z,102186.63
2022-08-11T04:27:47.920Z,102191.91
2022-08-11T04:30:40.533Z,102191.97
2022-08-11T04:33:19.614Z,102191.44
2022-08-11T04:36:05.979Z,102188.34
2022-08-11T04:38:58.770Z,102192.78
2022-08-11T04:42:18.865Z,102191.97
2022-08-11T04:45:11.868Z,102199.50
2022-08-11T04:48:10.546Z,102195.31
2022-08-11T04:51:37.970Z,102198.38
2022-08-11T04:54:39.629Z,102190.59
2022-08-11T04:57:54.192Z,102189.47
2022-08-11T05:00:48.081Z,102189.75
2022-08-11T05:03:43.038Z,102192.25
2022-08-11T05:06:37.922Z,102186.97
2022-08-11T05:09:28.750Z,102191.44
2022-08-11T05:12:02.282Z,102195.63
2022-08-11T05:15:08.034Z,102195.59
2022-08-11T05:18:16.126Z,102193.41
2022-08-11T05:21:07.420Z,102195.31
2022-08-11T05:23:58.176Z,102195.03
2022-08-11T05:26:49.294Z,102190.59
2022-08-11T05:30:02.448Z,102190.88
2022-08-11T05:33:01.554Z,102194.47
2022-08-11T05:36:02.362Z,102198.38
2022-08-11T05:38:46.037Z,102195.59
2022-08-11T05:41:31.863Z,102188.34
2022-08-11T05:44:22.100Z,102196.19
2022-08-11T05:47:08.431Z,102193.63
2022-08-11T05:49:54.402Z,102195.03
2022-08-11T05:52:43.578Z,102189.75
2022-08-11T05:55:33.133Z,102204.22
2022-08-11T05:58:04.222Z,102199.75
2022-08-11T06:00:32.140Z,102202.31
2022-08-11T06:03:04.060Z,102209.22
2022-08-11T06:05:43.938Z,102200.56
2022-08-11T06:08:12.559Z,102203.63
2022-08-11T06:10:44.196Z,102208.94
2022-08-11T06:13:16.534Z,102211.97
2022-08-11T06:15:48.056Z,102212.50
2022-08-11T06:18:15.329Z,102209.13
2022-08-11T06:20:56.562Z,102200.56
2022-08-11T06:23:25.878Z,102207.75
2022-08-11T06:25:56.140Z,102211.06
2022-08-11T06:28:33.360Z,102207.75
2022-08-11T06:31:00.548Z,102206.91
2022-08-11T06:33:50.752Z,102210.47
2022-08-11T06:36:29.748Z,102194.94
2022-08-11T06:39:11.356Z,102203.50
2022-08-11T06:41:48.839Z,102211.56
2022-08-11T06:44:28.553Z,102206.00
2022-08-11T06:47:00.959Z,102209.88
2022-08-11T06:49:55.528Z,102204.31
2022-08-11T06:52:36.375Z,102209.28
2022-08-11T06:55:55.403Z,102211.50
2022-08-11T06:58:23.039Z,102219.56
2022-08-11T07:00:56.879Z,102215.28
2022-08-11T07:03:26.091Z,102211.41
2022-08-11T07:06:01.465Z,102204.72
2022-08-11T07:08:58.768Z,102211.06
2022-08-11T07:12:02.414Z,102215.47
2022-08-11T07:14:49.950Z,102204.91
2022-08-11T07:17:26.032Z,102222.38
2022-08-11T07:20:17.575Z,102215.38
2022-08-11T07:23:12.524Z,102211.72
2022-08-11T07:26:00.499Z,102198.28
2022-08-11T07:28:48.496Z,102204.06
2022-08-11T07:31:21.895Z,102199.25
2022-08-11T07:34:07.785Z,102210.97
2022-08-11T07:36:45.980Z,102208.06
2022-08-11T07:39:32.635Z,102201.63
2022-08-11T07:42:04.855Z,102200.44
2022-08-11T07:44:52.622Z,102198.75
2022-08-11T07:47:37.725Z,102204.25
2022-08-11T07:50:24.141Z,102208.06
2022-08-11T07:52:52.787Z,102207.13
2022-08-11T07:55:48.937Z,102201.00
2022-08-11T07:58:31.694Z,102205.38
2022-08-11T08:01:37.043Z,102205.59
2022-08-11T08:04:24.159Z,102210.59
2022-08-11T08:07:09.792Z,102212.00
2022-08-11T08:09:55.324Z,102209.75
2022-08-11T08:12:43.060Z,102210.47
2022-08-11T08:15:33.482Z,102214.09
2022-08-11T08:18:20.709Z,102208.97
2022-08-11T08:20:50.464Z,102208.53
2022-08-11T08:23:32.759Z,102211.13
2022-08-11T08:26:02.214Z,102209.38
2022-08-11T08:28:32.414Z,102208.19
2022-08-11T08:31:00.720Z,102203.13
2022-08-11T08:33:32.250Z,102209.09
2022-08-11T08:36:12.397Z,102204.84
2022-08-11T08:38:49.824Z,102199.38
2022-08-11T08:41:27.481Z,102204.28
2022-08-11T08:44:15.127Z,102209.19
2022-08-11T08:46:49.317Z,102201.22
2022-08-11T08:49:19.480Z,102204.66
2022-08-11T08:52:02.000Z,102203.22
2022-08-11T08:54:42.045Z,102199.91
2022-08-11T08:57:09.674Z,102202.56
2022-08-11T08:59:48.481Z,102205.47
2022-08-11T09:02:22.065Z,102204.34
2022-08-11T09:05:03.567Z,102204.47
2022-08-11T09:07:38.811Z,102186.75
2022-08-11T09:10:07.622Z,102201.47
2022-08-11T09:12:36.388Z,102199.19
2022-08-11T09:15:06.289Z,102209.78
2022-08-11T09:17:46.605Z,102207.91
2022-08-11T09:20:21.225Z,102200.38
2022-08-11T09:26:19.385Z,102201.56
2022-08-11T09:28:47.523Z,102192.50
2022-08-11T09:31:15.237Z,102191.13
2022-08-11T09:33:44.416Z,102184.78
2022-08-11T09:36:32.224Z,102196.72
2022-08-11T09:39:19.265Z,102180.59
2022-08-11T09:42:01.363Z,102188.16
2022-08-11T09:44:48.608Z,102191.97
2022-08-11T09:47:40.377Z,102178.59
2022-08-11T09:50:09.576Z,102193.53
2022-08-11T09:52:48.083Z,102178.38
2022-08-11T09:55:24.448Z,102176.63
2022-08-11T09:58:09.784Z,102168.09
2022-08-11T10:00:38.005Z,102171.47
2022-08-11T10:03:08.386Z,102173.94
2022-08-11T10:05:55.748Z,102172.53
2022-08-11T10:08:26.688Z,102167.75
2022-08-11T10:10:55.345Z,102166.94
2022-08-11T10:14:12.410Z,102156.25
2022-08-11T10:16:15.749Z,102164.53
2022-08-11T10:18:52.197Z,102153.50
2022-08-11T10:21:28.332Z,102150.53
2022-08-11T10:24:17.244Z,102153.53
2022-08-11T10:27:00.621Z,102148.75
2022-08-11T10:29:52.116Z,102150.41
2022-08-11T10:32:57.511Z,102148.25
2022-08-11T10:35:29.391Z,102147.59
2022-08-11T10:38:07.574Z,102150.38
2022-08-11T10:40:39.147Z,102144.75
2022-08-11T10:43:10.560Z,102140.09
2022-08-11T10:45:59.150Z,102147.72
2022-08-11T10:48:28.757Z,102145.06
2022-08-11T10:51:14.723Z,102142.69
2022-08-11T10:54:06.834Z,102148.63
2022-08-11T10:56:58.265Z,102142.91
2022-08-11T10:59:28.103Z,102140.44
2022-08-11T11:01:55.425Z,102140.88
2022-08-11T11:04:39.549Z,102135.03
2022-08-11T11:07:13.718Z,102142.47
2022-08-11T11:09:54.253Z,102131.19
2022-08-11T11:12:47.065Z,102129.69
2022-08-11T11:15:35.547Z,102123.25
2022-08-11T11:18:07.464Z,102131.09
2022-08-11T11:21:04.331Z,102120.91
2022-08-11T11:24:06.059Z,102115.28
2022-08-11T11:26:50.373Z,102113.56
2022-08-11T11:29:50.684Z,102108.59
2022-08-11T11:32:33.348Z,102106.03
2022-08-11T11:35:18.019Z,102113.59
2022-08-11T11:37:56.205Z,102111.41
2022-08-11T11:40:32.367Z,102110.09
2022-08-11T11:43:00.052Z,102084.31
2022-08-11T11:45:26.835Z,102109.38
2022-08-11T11:47:55.810Z,102103.16
2022-08-11T11:50:36.736Z,102094.31
2022-08-11T11:53:09.668Z,102100.81
2022-08-11T11:55:37.003Z,102082.00
2022-08-11T11:58:23.798Z,102095.22
2022-08-11T12:01:12.153Z,102088.63
2022-08-11T12:03:40.143Z,102091.66
2022-08-11T12:06:09.314Z,102087.28
2022-08-11T12:08:37.175Z,102090.47
2022-08-11T12:11:25.150Z,102079.31
2022-08-11T12:13:57.669Z,102079.72
2022-08-11T12:16:34.410Z,102074.91
2022-08-11T12:19:06.576Z,102071.69
2022-08-11T12:21:35.840Z,102075.78
2022-08-11T12:24:21.638Z,102071.22
2022-08-11T12:27:15.007Z,102069.06
2022-08-11T12:29:36.131Z,102068.38
2022-08-11T12:32:08.173Z,102066.66
2022-08-11T12:34:35.430Z,102048.91
2022-08-11T12:37:05.594Z,102057.50
2022-08-11T12:40:12.973Z,102059.16
2022-08-11T12:43:04.053Z,102040.00
2022-08-11T12:45:37.197Z,102051.63
2022-08-11T12:48:58.747Z,102039.84
2022-08-11T12:52:12.417Z,102043.13
2022-08-11T12:55:02.409Z,102033.00
2022-08-11T12:57:54.042Z,102029.63
2022-08-11T13:00:40.430Z,102036.97
2022-08-11T13:03:28.708Z,102033.53
2022-08-11T13:06:00.715Z,102025.41
2022-08-11T13:08:29.395Z,102022.31
2022-08-11T13:11:17.082Z,102029.34
2022-08-11T13:13:55.878Z,102025.13
2022-08-11T13:16:30.611Z,102013.19
2022-08-11T13:19:01.083Z,102012.91
2022-08-11T13:21:28.986Z,102009.91
2022-08-11T13:23:59.869Z,102015.44
2022-08-11T13:26:48.620Z,102013.94
2022-08-11T13:29:25.381Z,101999.41
2022-08-11T13:31:55.998Z,102004.69
2022-08-11T13:34:23.771Z,101995.16
2022-08-11T13:36:52.608Z,101996.19
2022-08-11T13:39:22.893Z,101986.72
2022-08-11T13:41:53.395Z,101992.47
2022-08-11T13:44:25.507Z,101980.88
2022-08-11T13:46:57.564Z,101990.69
2022-08-11T13:49:25.709Z,101995.53
2022-08-11T13:51:54.102Z,101986.09
2022-08-11T13:54:36.791Z,101980.44
2022-08-11T13:57:08.121Z,101984.56
2022-08-11T13:59:43.689Z,101983.28
2022-08-11T14:02:30.854Z,101979.31
2022-08-11T14:05:02.679Z,101970.31
2022-08-11T14:07:39.181Z,101967.88
2022-08-11T14:10:07.624Z,101972.81
2022-08-11T14:13:12.212Z,101965.63
2022-08-11T14:15:42.271Z,101967.03
2022-08-11T14:18:16.968Z,101966.22
2022-08-11T14:21:05.175Z,101966.94
2022-08-11T14:23:38.683Z,101962.44
2022-08-11T14:26:26.780Z,101965.72
2022-08-11T14:28:57.434Z,101959.59
2022-08-11T14:31:25.461Z,101948.00
2022-08-11T14:33:59.368Z,101959.19
2022-08-11T14:36:40.550Z,101956.84
2022-08-11T14:39:13.318Z,101953.72
2022-08-11T14:42:11.119Z,101953.69
2022-08-11T14:45:00.531Z,101957.78
2022-08-11T14:47:28.707Z,101951.69
2022-08-11T14:50:09.819Z,101941.81
2022-08-11T14:52:44.678Z,101942.59
2022-08-11T14:55:31.522Z,101944.13
2022-08-11T14:57:59.295Z,101937.13
2022-08-11T15:00:26.577Z,101932.06
2022-08-11T15:03:13.527Z,101934.06
2022-08-11T15:05:56.813Z,101931.31
2022-08-11T15:08:46.549Z,101929.06
2022-08-11T15:11:33.522Z,101930.03
2022-08-11T15:14:02.456Z,101922.53
2022-08-11T15:16:48.611Z,101916.38
2022-08-11T15:19:16.369Z,101908.19
2022-08-11T15:22:01.819Z,101905.53
2022-08-11T15:24:30.767Z,101911.25
2022-08-11T15:27:19.350Z,101909.22
2022-08-11T15:30:07.256Z,101908.03
2022-08-11T15:32:53.709Z,101901.75
2022-08-11T15:35:39.261Z,101896.50
2022-08-11T15:38:11.612Z,101895.53
2022-08-11T15:40:58.623Z,101894.91
2022-08-11T15:43:47.860Z,101898.94
2022-08-11T15:46:18.763Z,101896.06
2022-08-11T15:48:53.896Z,101897.72
2022-08-11T15:51:33.275Z,101887.47
2022-08-11T15:54:08.498Z,101885.94
2022-08-11T15:56:39.743Z,101889.22
2022-08-11T15:59:42.036Z,101893.25
2022-08-11T16:02:32.870Z,101892.34
2022-08-11T16:05:02.195Z,101887.56
2022-08-11T16:07:32.545Z,101878.44
2022-08-11T16:10:09.636Z,101883.56
2022-08-11T16:12:40.548Z,101876.13
2022-08-11T16:15:29.243Z,101882.41
2022-08-11T16:18:05.005Z,101876.16
2022-08-11T16:20:33.589Z,101872.22
2022-08-11T16:23:04.647Z,101869.72
2022-08-11T16:26:30.474Z,101869.88
2022-08-11T16:28:23.111Z,101872.34
2022-08-11T16:30:50.968Z,101868.47
2022-08-11T16:33:49.087Z,101869.16
2022-08-11T16:36:27.609Z,101870.25
2022-08-11T16:38:56.729Z,101866.25
2022-08-11T16:41:44.277Z,101860.88
2022-08-11T16:44:37.007Z,101865.84
2022-08-11T16:47:06.879Z,101866.59
2022-08-11T16:49:36.646Z,101861.59
2022-08-11T16:52:06.061Z,101866.56
2022-08-11T16:54:34.473Z,101860.03
2022-08-11T16:57:23.634Z,101854.31
2022-08-11T16:59:57.812Z,101853.09
2022-08-11T17:02:47.401Z,101852.94
2022-08-11T17:05:39.080Z,101853.88
2022-08-11T17:08:55.933Z,101853.47
2022-08-11T17:11:46.138Z,101852.25
2022-08-11T17:14:35.129Z,101854.25
2022-08-11T17:17:05.954Z,101855.19
2022-08-11T17:20:43.086Z,101847.06
2022-08-11T17:22:41.100Z,101847.44
2022-08-11T17:25:09.783Z,101851.94
2022-08-11T17:27:38.681Z,101852.78
2022-08-11T17:30:07.758Z,101839.03
2022-08-11T17:33:03.269Z,101844.50
2022-08-11T17:35:34.650Z,101849.78
2022-08-11T17:38:15.867Z,101830.59
2022-08-11T17:41:22.977Z,101842.34
2022-08-11T17:44:10.361Z,101840.31
2022-08-11T17:47:01.028Z,101850.75
2022-08-11T17:49:37.371Z,101842.56
2022-08-11T17:52:24.999Z,101837.94
2022-08-11T17:55:11.871Z,101843.59
2022-08-11T17:58:00.249Z,101838.97
2022-08-11T18:00:27.707Z,101847.75
2022-08-11T18:03:14.507Z,101837.88
2022-08-11T18:05:44.369Z,101840.03
2022-08-11T18:08:31.755Z,101847.13
2022-08-11T18:12:06.080Z,101845.22
2022-08-11T18:14:27.510Z,101851.06
2022-08-11T18:17:13.016Z,101834.25
2022-08-11T18:19:58.364Z,101849.53
2022-08-11T18:22:48.248Z,101847.31
2022-08-11T18:25:43.238Z,101849.84
2022-08-11T18:28:34.048Z,101845.69
2022-08-11T18:31:20.943Z,101848.63
2022-08-11T18:34:11.035Z,101856.38
2022-08-11T18:37:19.725Z,101853.59
2022-08-11T18:40:16.327Z,101849.09
2022-08-11T18:43:05.680Z,101849.19
2022-08-11T18:46:05.276Z,101854.13
2022-08-11T18:48:55.141Z,101860.75
2022-08-11T18:51:42.409Z,101865.72
2022-08-11T18:54:29.871Z,101864.53
2022-08-11T18:57:18.240Z,101861.78
2022-08-11T19:00:05.329Z,101863.97
2022-08-11T19:02:57.771Z,101873.59
2022-08-11T19:06:05.307Z,101871.47
2022-08-11T19:08:55.989Z,101870.72
2022-08-11T19:11:43.881Z,101873.78
2022-08-11T19:14:30.895Z,101879.22
2022-08-11T19:17:43.995Z,101870.25
2022-08-11T19:20:31.927Z,101890.31
2022-08-11T19:23:18.273Z,101881.66
2022-08-11T19:26:05.615Z,101884.72
2022-08-11T19:28:53.073Z,101892.34
2022-08-11T19:31:43.824Z,101886.25
2022-08-11T19:34:34.477Z,101898.41
2022-08-11T19:37:24.326Z,101900.59
2022-08-11T19:40:16.793Z,101900.53
2022-08-11T19:43:03.535Z,101900.09
2022-08-11T19:45:52.589Z,101899.50
2022-08-11T19:48:43.732Z,101893.84
2022-08-11T19:51:29.616Z,101893.84
2022-08-11T19:54:16.431Z,101900.06
2022-08-11T19:57:03.849Z,101899.31
2022-08-11T19:59:50.680Z,101895.84
2022-08-11T20:02:35.931Z,101899.63
2022-08-11T20:05:21.603Z,101898.22
2022-08-11T20:08:07.909Z,101898.41
2022-08-11T20:10:54.787Z,101899.59
2022-08-11T20:13:43.426Z,101892.59
2022-08-11T20:16:31.005Z,101893.94
2022-08-11T20:19:17.856Z,101891.41
2022-08-11T20:22:08.208Z,101909.56
2022-08-11T20:24:56.751Z,101902.06
2022-08-11T20:27:43.039Z,101894.28
2022-08-11T20:30:28.922Z,101894.19
2022-08-11T20:33:13.851Z,101890.66
2022-08-11T20:35:58.958Z,101882.25
2022-08-11T20:38:48.802Z,101898.38
2022-08-11T20:41:58.686Z,101903.22
2022-08-11T20:44:42.169Z,101897.22
2022-08-11T20:47:27.492Z,101895.84
2022-08-11T20:50:19.289Z,101905.00
2022-08-11T20:53:06.082Z,101889.91
2022-08-11T20:55:53.778Z,101905.44
2022-08-11T21:01:47.235Z,101905.44
2022-08-11T21:04:37.508Z,101899.69
2022-08-11T21:07:41.428Z,101909.19
2022-08-11T21:10:29.118Z,101913.41
2022-08-11T21:13:24.252Z,101919.88
2022-08-11T21:16:18.351Z,101913.41
2022-08-11T21:19:18.796Z,101916.66
2022-08-11T21:22:27.852Z,101909.47
2022-08-11T21:25:15.999Z,101911.28
2022-08-11T21:28:02.737Z,101907.69
2022-08-11T21:30:49.653Z,101914.38
2022-08-11T21:33:35.588Z,101910.47
2022-08-11T21:36:21.221Z,101907.72
2022-08-11T21:39:08.076Z,101905.63
2022-08-11T21:41:53.521Z,101907.22
2022-08-11T21:44:39.847Z,101905.00
2022-08-11T21:47:43.721Z,101908.88
2022-08-11T21:50:29.679Z,101901.66
2022-08-11T21:53:16.465Z,101910.78
2022-08-11T21:56:03.308Z,101915.81
2022-08-11T21:58:49.804Z,101911.22
2022-08-11T22:01:36.810Z,101914.44
2022-08-11T22:04:23.552Z,101906.41
2022-08-11T22:07:09.931Z,101913.69
2022-08-11T22:09:55.821Z,101907.34
2022-08-11T22:12:44.891Z,101906.41
2022-08-11T22:15:31.852Z,101910.03
2022-08-11T22:18:19.205Z,101908.00
2022-08-11T22:21:04.616Z,101911.00
2022-08-11T22:23:52.479Z,101913.22
2022-08-11T22:26:39.592Z,101899.88
2022-08-11T22:29:50.826Z,101910.13
2022-08-11T22:32:32.340Z,101911.28
2022-08-11T22:35:19.341Z,101905.53
2022-08-11T22:38:05.663Z,101903.47
2022-08-11T22:40:52.000Z,101899.66
2022-08-11T22:43:37.772Z,101897.50
2022-08-11T22:46:23.611Z,101902.16
2022-08-11T22:49:10.025Z,101896.41
2022-08-11T22:51:57.496Z,101905.41
2022-08-11T22:54:43.955Z,101908.22
2022-08-11T22:57:29.304Z,101899.53
2022-08-11T23:00:16.916Z,101901.06
2022-08-11T23:03:02.645Z,101894.47
2022-08-11T23:05:48.247Z,101887.22
2022-08-11T23:08:34.415Z,101889.06
2022-08-11T23:11:20.323Z,101894.03
2022-08-11T23:14:06.395Z,101889.78
2022-08-11T23:16:51.731Z,101889.50
2022-08-11T23:20:08.702Z,101895.28
2022-08-11T23:22:50.253Z,101897.44
2022-08-11T23:25:36.487Z,101885.88
2022-08-11T23:28:24.431Z,101898.41
2022-08-11T23:31:12.286Z,101896.13
2022-08-11T23:34:00.662Z,101901.91
2022-08-11T23:36:47.422Z,101894.31
2022-08-11T23:39:34.439Z,101892.97
2022-08-11T23:42:20.681Z,101888.16
2022-08-11T23:45:07.265Z,101891.34
2022-08-11T23:47:56.955Z,101886.69
2022-08-11T23:50:43.888Z,101896.59
2022-08-11T23:53:31.328Z,101893.13
2022-08-11T23:56:17.752Z,101897.41
2022-08-11T23:59:09.183Z,101889.47
